createdAt,value
2023-03-11T00:00:33.687Z,3.69
2023-03-11T00:03:02.239Z,3.75
2023-03-11T00:05:31.797Z,3.60
2023-03-11T00:07:58.361Z,3.67
2023-03-11T00:10:30.893Z,3.62
2023-03-11T00:12:58.990Z,3.71
2023-03-11T00:15:26.672Z,3.59
2023-03-11T00:17:53.093Z,3.50
2023-03-11T00:20:31.887Z,3.59
2023-03-11T00:22:58.994Z,3.77
2023-03-11T00:25:28.741Z,3.77
2023-03-11T00:27:56.104Z,3.69
2023-03-11T00:30:24.075Z,3.75
2023-03-11T00:32:53.038Z,3.69
2023-03-11T00:35:23.328Z,3.67
2023-03-11T00:37:54.331Z,3.80
2023-03-11T00:40:22.031Z,3.83
2023-03-11T00:42:48.449Z,3.76
2023-03-11T00:45:19.216Z,3.67
2023-03-11T00:47:46.095Z,3.67
2023-03-11T00:50:24.970Z,3.51
2023-03-11T00:52:52.784Z,3.45
2023-03-11T00:55:22.743Z,3.58
2023-03-11T00:57:53.244Z,3.66
2023-03-11T01:00:21.276Z,3.67
2023-03-11T01:02:47.676Z,3.63
2023-03-11T01:05:15.197Z,3.61
2023-03-11T01:07:41.914Z,3.76
2023-03-11T01:10:10.103Z,3.60
2023-03-11T01:12:36.674Z,3.43
2023-03-11T01:15:04.377Z,3.42
2023-03-11T01:17:30.790Z,3.48
2023-03-11T01:19:57.231Z,3.44
2023-03-11T01:22:23.749Z,3.47
2023-03-11T01:24:50.102Z,3.70
2023-03-11T01:27:16.724Z,3.55
2023-03-11T01:29:43.127Z,3.53
2023-03-11T01:32:11.234Z,3.49
2023-03-11T01:34:37.730Z,3.60
2023-03-11T01:37:04.219Z,3.71
2023-03-11T01:39:30.794Z,3.64
2023-03-11T01:41:57.294Z,3.56
2023-03-11T01:44:23.748Z,3.60
2023-03-11T01:46:53.035Z,3.62
2023-03-11T01:49:21.799Z,3.68
2023-03-11T01:51:51.986Z,3.67
2023-03-11T01:54:28.384Z,3.61
2023-03-11T01:56:55.842Z,3.53
2023-03-11T01:59:36.266Z,3.60
2023-03-11T02:02:11.330Z,3.65
2023-03-11T02:04:40.487Z,3.54
2023-03-11T02:07:08.610Z,3.59
2023-03-11T02:09:35.082Z,3.65
2023-03-11T02:12:02.688Z,3.62
2023-03-11T02:14:30.100Z,3.61
2023-03-11T02:16:57.975Z,3.62
2023-03-11T02:19:31.415Z,3.64
2023-03-11T02:21:58.261Z,3.66
2023-03-11T02:24:46.460Z,3.76
2023-03-11T02:27:16.185Z,3.65
2023-03-11T02:29:44.741Z,3.59
2023-03-11T02:32:11.444Z,3.57
2023-03-11T02:34:39.508Z,3.55
2023-03-11T02:37:15.726Z,3.55
2023-03-11T02:39:49.294Z,3.42
2023-03-11T02:42:22.581Z,3.40
2023-03-11T02:44:58.190Z,3.31
2023-03-11T02:47:25.751Z,3.36
2023-03-11T02:49:54.014Z,3.27
2023-03-11T02:52:20.971Z,3.22
2023-03-11T02:54:47.328Z,3.14
2023-03-11T02:57:13.756Z,3.21
2023-03-11T02:59:40.159Z,3.27
2023-03-11T03:02:06.599Z,3.34
2023-03-11T03:04:33.054Z,3.33
2023-03-11T03:06:59.582Z,3.31
2023-03-11T03:09:26.198Z,3.25
2023-03-11T03:11:52.526Z,3.31
2023-03-11T03:14:18.976Z,3.33
2023-03-11T03:16:45.547Z,3.25
2023-03-11T03:19:11.971Z,3.18
2023-03-11T03:21:38.321Z,3.23
2023-03-11T03:24:04.816Z,3.31
2023-03-11T03:26:31.180Z,3.27
2023-03-11T03:28:57.535Z,3.34
2023-03-11T03:31:24.175Z,3.34
2023-03-11T03:33:50.635Z,3.39
2023-03-11T03:36:17.057Z,3.39
2023-03-11T03:38:43.547Z,3.45
2023-03-11T03:41:10.090Z,3.41
2023-03-11T03:43:36.455Z,3.39
2023-03-11T03:46:05.205Z,3.36
2023-03-11T03:48:32.025Z,3.34
2023-03-11T03:51:04.424Z,3.48
2023-03-11T03:53:31.339Z,3.55
2023-03-11T03:55:57.809Z,3.64
2023-03-11T03:58:24.186Z,3.27
2023-03-11T04:00:56.140Z,3.32
2023-03-11T04:03:22.840Z,3.30
2023-03-11T04:05:49.208Z,3.24
2023-03-11T04:08:15.628Z,3.21
2023-03-11T04:10:41.964Z,3.21
2023-03-11T04:13:08.441Z,3.29
2023-03-11T04:15:34.835Z,3.25
2023-03-11T04:18:06.021Z,3.31
2023-03-11T04:20:32.374Z,3.20
2023-03-11T04:22:58.787Z,3.25
2023-03-11T04:25:25.264Z,3.28
2023-03-11T04:27:52.311Z,3.32
2023-03-11T04:30:18.809Z,3.29
2023-03-11T04:32:45.274Z,3.25
2023-03-11T04:35:11.707Z,3.34
2023-03-11T04:37:38.060Z,3.16
2023-03-11T04:40:06.222Z,3.13
2023-03-11T04:42:32.683Z,3.17
2023-03-11T04:44:59.048Z,3.27
2023-03-11T04:47:25.493Z,3.15
2023-03-11T04:49:51.908Z,3.12
2023-03-11T04:52:18.292Z,3.00
2023-03-11T04:54:44.645Z,3.26
2023-03-11T04:57:10.981Z,3.26
2023-03-11T04:59:37.430Z,3.23
2023-03-11T05:02:03.909Z,3.27
2023-03-11T05:04:30.677Z,3.30
2023-03-11T05:06:57.192Z,3.32
2023-03-11T05:09:25.679Z,3.35
2023-03-11T05:11:52.147Z,3.60
2023-03-11T05:14:18.641Z,3.47
2023-03-11T05:16:45.034Z,3.14
2023-03-11T05:19:46.720Z,3.07
2023-03-11T05:22:13.384Z,2.93
2023-03-11T05:24:39.817Z,2.91
2023-03-11T05:27:06.234Z,2.98
2023-03-11T05:29:32.723Z,2.99
2023-03-11T05:31:59.208Z,2.96
2023-03-11T05:34:25.667Z,3.06
2023-03-11T05:36:52.051Z,2.75
2023-03-11T05:39:18.539Z,2.52
2023-03-11T05:41:44.989Z,2.59
2023-03-11T05:44:11.408Z,2.50
2023-03-11T05:46:37.952Z,2.47
2023-03-11T05:49:04.486Z,2.59
2023-03-11T05:51:30.926Z,2.42
2023-03-11T05:53:58.606Z,2.38
2023-03-11T05:56:25.064Z,2.30
2023-03-11T05:58:51.541Z,2.38
2023-03-11T06:01:20.611Z,2.45
2023-03-11T06:03:47.063Z,2.34
2023-03-11T06:06:14.133Z,2.39
2023-03-11T06:08:45.844Z,2.32
2023-03-11T06:11:12.237Z,2.50
2023-03-11T06:13:38.806Z,2.47
2023-03-11T06:16:05.793Z,2.53
2023-03-11T06:18:32.189Z,2.42
2023-03-11T06:20:59.367Z,2.41
2023-03-11T06:23:26.674Z,2.60
2023-03-11T06:26:05.175Z,2.64
2023-03-11T06:28:32.193Z,2.57
2023-03-11T06:31:08.290Z,2.64
2023-03-11T06:33:34.773Z,2.66
2023-03-11T06:36:03.703Z,2.72
2023-03-11T06:38:30.321Z,2.53
2023-03-11T06:41:05.060Z,2.51
2023-03-11T06:43:33.063Z,2.44
2023-03-11T06:46:00.022Z,2.41
2023-03-11T06:48:26.537Z,2.51
2023-03-11T06:50:57.631Z,2.52
2023-03-11T06:53:24.719Z,2.58
2023-03-11T06:56:01.820Z,2.70
2023-03-11T06:58:29.176Z,2.58
2023-03-11T07:00:59.822Z,2.60
2023-03-11T07:03:26.272Z,2.37
2023-03-11T07:05:52.661Z,2.57
2023-03-11T07:08:19.166Z,2.68
2023-03-11T07:10:45.689Z,2.91
2023-03-11T07:13:12.563Z,2.71
2023-03-11T07:15:38.956Z,2.90
2023-03-11T07:18:05.500Z,2.98
2023-03-11T07:20:32.013Z,2.87
2023-03-11T07:22:58.414Z,2.88
2023-03-11T07:25:24.938Z,2.92
2023-03-11T07:27:51.364Z,3.14
2023-03-11T07:30:18.296Z,3.05
2023-03-11T07:32:44.707Z,3.15
2023-03-11T07:35:11.265Z,2.98
2023-03-11T07:37:37.661Z,3.12
2023-03-11T07:40:04.358Z,3.06
2023-03-11T07:42:30.706Z,3.13
2023-03-11T07:44:57.120Z,3.33
2023-03-11T07:47:24.656Z,3.24
2023-03-11T07:49:50.988Z,3.28
2023-03-11T07:52:17.520Z,3.30
2023-03-11T07:54:45.147Z,3.54
2023-03-11T07:57:16.943Z,3.82
2023-03-11T07:59:43.503Z,3.82
2023-03-11T08:02:10.678Z,3.67
2023-03-11T08:04:37.060Z,3.80
2023-03-11T08:07:03.949Z,3.90
2023-03-11T08:09:30.376Z,4.03
2023-03-11T08:11:57.016Z,4.04
2023-03-11T08:14:23.349Z,4.01
2023-03-11T08:16:49.732Z,3.90
2023-03-11T08:19:16.114Z,4.13
2023-03-11T08:21:42.549Z,4.21
2023-03-11T08:24:11.747Z,4.26
2023-03-11T08:26:38.699Z,4.50
2023-03-11T08:29:05.126Z,4.62
2023-03-11T08:31:33.707Z,4.84
2023-03-11T08:34:03.226Z,4.64
2023-03-11T08:36:30.158Z,4.58
2023-03-11T08:38:56.730Z,4.48
2023-03-11T08:41:23.764Z,4.55
2023-03-11T08:43:52.129Z,4.50
2023-03-11T08:46:29.294Z,4.54
2023-03-11T08:49:01.072Z,4.76
2023-03-11T08:51:30.371Z,4.56
2023-03-11T08:53:57.210Z,5.20
2023-03-11T08:56:23.860Z,5.14
2023-03-11T08:58:50.859Z,5.08
2023-03-11T09:01:17.914Z,4.97
2023-03-11T09:03:44.364Z,5.00
2023-03-11T09:06:15.449Z,4.87
2023-03-11T09:08:43.368Z,5.37
2023-03-11T09:11:10.031Z,5.48
2023-03-11T09:13:36.430Z,5.56
2023-03-11T09:16:05.798Z,5.39
2023-03-11T09:18:32.298Z,5.56
2023-03-11T09:21:00.527Z,5.62
2023-03-11T09:23:26.947Z,5.64
2023-03-11T09:25:53.422Z,5.36
2023-03-11T09:28:19.835Z,5.52
2023-03-11T09:30:46.239Z,5.65
2023-03-11T09:33:12.605Z,5.56
2023-03-11T09:35:39.691Z,5.57
2023-03-11T09:38:06.162Z,6.01
2023-03-11T09:40:56.584Z,5.86
2023-03-11T09:43:42.785Z,5.75
2023-03-11T09:46:24.294Z,5.47
2023-03-11T09:49:00.518Z,5.52
2023-03-11T09:51:36.066Z,5.50
2023-03-11T09:54:10.976Z,5.42
2023-03-11T09:56:38.527Z,5.49
2023-03-11T09:59:09.320Z,5.33
2023-03-11T10:01:43.176Z,5.75
2023-03-11T10:04:18.188Z,6.03
2023-03-11T10:06:46.976Z,6.18
2023-03-11T10:09:22.576Z,6.27
2023-03-11T10:12:13.984Z,6.75
2023-03-11T10:15:05.905Z,6.77
2023-03-11T10:17:40.144Z,6.09
2023-03-11T10:20:19.875Z,5.94
2023-03-11T10:23:25.623Z,5.91
2023-03-11T10:25:58.397Z,5.97
2023-03-11T10:28:33.203Z,6.06
2023-03-11T10:31:20.241Z,5.82
2023-03-11T10:33:52.430Z,5.75
2023-03-11T10:36:35.312Z,5.72
2023-03-11T10:39:03.327Z,5.85
2023-03-11T10:41:47.295Z,6.32
2023-03-11T10:44:23.894Z,6.97
2023-03-11T10:46:50.263Z,6.89
2023-03-11T10:49:18.356Z,6.93
2023-03-11T10:51:52.988Z,6.92
2023-03-11T10:54:38.410Z,6.90
2023-03-11T10:57:21.535Z,7.22
2023-03-11T10:59:50.728Z,7.16
2023-03-11T11:02:37.531Z,6.83
2023-03-11T11:05:20.008Z,6.49
2023-03-11T11:07:53.167Z,6.21
2023-03-11T11:10:26.766Z,6.69
2023-03-11T11:12:56.523Z,6.39
2023-03-11T11:15:32.755Z,6.64
2023-03-11T11:18:02.355Z,6.53
2023-03-11T11:20:30.913Z,6.87
2023-03-11T11:23:03.488Z,7.00
2023-03-11T11:25:34.930Z,6.75
2023-03-11T11:28:22.912Z,6.65
2023-03-11T11:30:55.199Z,6.89
2023-03-11T11:33:30.936Z,7.15
2023-03-11T11:36:01.400Z,6.75
2023-03-11T11:38:29.557Z,7.01
2023-03-11T11:40:59.678Z,6.97
2023-03-11T11:43:41.196Z,7.32
2023-03-11T11:46:18.940Z,6.82
2023-03-11T11:48:48.425Z,6.71
2023-03-11T11:51:28.601Z,7.22
2023-03-11T11:54:23.918Z,7.28
2023-03-11T11:56:50.483Z,6.93
2023-03-11T11:59:19.752Z,6.98
2023-03-11T12:01:58.066Z,6.96
2023-03-11T12:04:41.144Z,7.34
2023-03-11T12:07:24.978Z,6.89
2023-03-11T12:10:22.863Z,6.76
2023-03-11T12:13:11.940Z,6.86
2023-03-11T12:15:44.352Z,7.18
2023-03-11T12:18:24.444Z,6.80
2023-03-11T12:20:56.112Z,6.71
2023-03-11T12:23:35.728Z,7.13
2023-03-11T12:26:10.068Z,7.24
2023-03-11T12:28:42.841Z,7.01
2023-03-11T12:31:11.773Z,6.58
2023-03-11T12:33:45.718Z,7.19
2023-03-11T12:36:29.197Z,7.24
2023-03-11T12:38:56.029Z,6.85
2023-03-11T12:41:41.906Z,7.00
2023-03-11T12:44:17.558Z,6.82
2023-03-11T12:47:03.304Z,6.92
2023-03-11T12:49:33.856Z,7.05
2023-03-11T12:52:18.878Z,6.39
2023-03-11T12:54:47.677Z,6.73
2023-03-11T12:57:17.019Z,6.92
2023-03-11T13:00:22.925Z,6.68
2023-03-11T13:03:20.758Z,6.84
2023-03-11T13:06:21.835Z,6.70
2023-03-11T13:08:54.724Z,6.18
2023-03-11T13:11:33.345Z,6.67
2023-03-11T13:14:30.643Z,6.78
2023-03-11T13:17:18.136Z,6.78
2023-03-11T13:19:49.982Z,6.64
2023-03-11T13:22:42.731Z,6.19
2023-03-11T13:25:27.326Z,6.20
2023-03-11T13:28:03.998Z,6.11
2023-03-11T13:30:38.896Z,6.36
2023-03-11T13:33:36.656Z,6.29
2023-03-11T13:36:18.908Z,6.26
2023-03-11T13:39:13.842Z,6.41
2023-03-11T13:41:44.590Z,6.37
2023-03-11T13:44:19.662Z,6.86
2023-03-11T13:46:50.468Z,6.37
2023-03-11T13:49:41.455Z,6.30
2023-03-11T13:52:46.824Z,6.52
2023-03-11T13:55:28.694Z,6.28
2023-03-11T13:57:56.859Z,6.62
2023-03-11T14:00:30.797Z,6.95
2023-03-11T14:03:03.549Z,7.07
2023-03-11T14:05:35.975Z,7.14
2023-03-11T14:08:18.871Z,7.06
2023-03-11T14:11:02.979Z,7.22
2023-03-11T14:13:38.284Z,7.28
2023-03-11T14:16:14.592Z,7.02
2023-03-11T14:18:43.385Z,7.04
2023-03-11T14:21:14.593Z,6.81
2023-03-11T14:23:47.286Z,6.40
2023-03-11T14:26:21.046Z,6.96
2023-03-11T14:28:54.096Z,6.85
2023-03-11T14:31:34.196Z,6.84
2023-03-11T14:34:06.708Z,6.98
2023-03-11T14:36:52.311Z,7.57
2023-03-11T14:39:36.319Z,6.42
2023-03-11T14:42:26.085Z,6.28
2023-03-11T14:45:11.935Z,6.52
2023-03-11T14:47:41.647Z,6.32
2023-03-11T14:50:16.559Z,6.30
2023-03-11T14:52:48.597Z,6.58
2023-03-11T14:55:27.677Z,6.64
2023-03-11T14:58:00.345Z,6.47
2023-03-11T15:00:41.698Z,6.83
2023-03-11T15:03:23.162Z,6.87
2023-03-11T15:05:57.932Z,6.75
2023-03-11T15:08:28.341Z,6.85
2023-03-11T15:11:05.778Z,6.73
2023-03-11T15:13:33.046Z,6.77
2023-03-11T15:16:02.272Z,6.92
2023-03-11T15:18:32.338Z,6.92
2023-03-11T15:21:06.124Z,6.91
2023-03-11T15:23:34.869Z,7.10
2023-03-11T15:26:01.747Z,7.03
2023-03-11T15:28:30.890Z,7.04
2023-03-11T15:31:21.981Z,6.55
2023-03-11T15:33:51.480Z,6.82
2023-03-11T15:36:50.210Z,7.06
2023-03-11T15:39:26.056Z,6.61
2023-03-11T15:42:01.870Z,6.56
2023-03-11T15:44:31.984Z,6.53
2023-03-11T15:47:01.278Z,6.43
2023-03-11T15:49:29.559Z,6.45
2023-03-11T15:52:00.021Z,6.35
2023-03-11T15:54:27.094Z,6.42
2023-03-11T15:56:55.137Z,6.61
2023-03-11T15:59:22.204Z,6.53
2023-03-11T16:01:48.563Z,6.66
2023-03-11T16:04:17.340Z,6.69
2023-03-11T16:06:47.965Z,6.75
2023-03-11T16:09:16.817Z,6.78
2023-03-11T16:11:44.331Z,6.93
2023-03-11T16:14:17.310Z,6.82
2023-03-11T16:16:44.802Z,6.56
2023-03-11T16:19:12.115Z,6.84
2023-03-11T16:21:42.944Z,6.77
2023-03-11T16:24:16.672Z,6.58
2023-03-11T16:26:43.071Z,6.95
2023-03-11T16:29:19.042Z,6.79
2023-03-11T16:31:46.743Z,6.77
2023-03-11T16:34:13.237Z,6.77
2023-03-11T16:36:39.678Z,6.69
2023-03-11T16:39:06.321Z,6.63
2023-03-11T16:41:44.358Z,6.55
2023-03-11T16:44:11.406Z,6.55
2023-03-11T16:46:37.963Z,6.44
2023-03-11T16:49:05.156Z,6.33
2023-03-11T16:51:31.939Z,6.34
2023-03-11T16:53:58.343Z,6.38
2023-03-11T16:56:24.947Z,6.29
2023-03-11T16:58:51.501Z,6.34
2023-03-11T17:01:19.113Z,6.20
2023-03-11T17:03:48.543Z,6.12
2023-03-11T17:06:16.237Z,6.02
2023-03-11T17:08:46.067Z,5.92
2023-03-11T17:11:24.271Z,5.85
2023-03-11T17:13:50.936Z,5.70
2023-03-11T17:16:17.430Z,5.56
2023-03-11T17:18:43.862Z,5.44
2023-03-11T17:21:13.089Z,5.14
2023-03-11T17:23:39.526Z,4.86
2023-03-11T17:26:11.506Z,4.65
2023-03-11T17:28:39.920Z,4.55
2023-03-11T17:31:11.648Z,5.04
2023-03-11T17:33:38.070Z,4.60
2023-03-11T17:36:06.525Z,4.31
2023-03-11T17:38:33.672Z,4.33
2023-03-11T17:41:00.182Z,4.33
2023-03-11T17:43:26.579Z,4.08
2023-03-11T17:45:53.755Z,3.95
2023-03-11T17:48:21.199Z,4.09
2023-03-11T17:50:47.607Z,4.01
2023-03-11T17:53:14.001Z,3.82
2023-03-11T17:55:40.618Z,3.60
2023-03-11T17:58:07.521Z,3.46
2023-03-11T18:00:34.040Z,3.22
2023-03-11T18:03:00.446Z,3.17
2023-03-11T18:05:26.811Z,3.09
2023-03-11T18:07:53.189Z,2.99
2023-03-11T18:10:19.699Z,2.97
2023-03-11T18:12:46.757Z,3.18
2023-03-11T18:15:19.313Z,2.81
2023-03-11T18:17:47.001Z,2.84
2023-03-11T18:20:14.709Z,3.19
2023-03-11T18:22:46.214Z,2.95
2023-03-11T18:25:13.797Z,2.89
2023-03-11T18:27:40.264Z,2.92
2023-03-11T18:30:08.114Z,2.65
2023-03-11T18:32:34.639Z,2.67
2023-03-11T18:35:01.213Z,2.84
2023-03-11T18:37:27.637Z,2.90
2023-03-11T18:39:54.106Z,2.86
2023-03-11T18:42:20.510Z,2.87
2023-03-11T18:44:46.983Z,2.93
2023-03-11T18:47:13.395Z,2.78
2023-03-11T18:49:40.419Z,2.60
2023-03-11T18:52:06.862Z,2.65
2023-03-11T18:54:33.295Z,2.79
2023-03-11T18:56:59.731Z,2.70
2023-03-11T18:59:27.545Z,2.66
2023-03-11T19:01:54.130Z,2.61
2023-03-11T19:04:20.599Z,2.73
2023-03-11T19:06:47.430Z,2.70
2023-03-11T19:09:14.107Z,2.29
2023-03-11T19:11:40.452Z,2.27
2023-03-11T19:14:06.918Z,2.13
2023-03-11T19:16:33.320Z,2.24
2023-03-11T19:19:00.327Z,2.18
2023-03-11T19:21:26.997Z,2.14
2023-03-11T19:23:55.283Z,1.86
2023-03-11T19:26:33.757Z,1.65
2023-03-11T19:29:08.810Z,1.51
2023-03-11T19:31:35.367Z,1.41
2023-03-11T19:34:01.840Z,1.27
2023-03-11T19:36:28.316Z,1.25
2023-03-11T19:38:54.696Z,1.44
2023-03-11T19:41:22.996Z,1.45
2023-03-11T19:43:49.503Z,1.50
2023-03-11T19:46:18.898Z,1.76
2023-03-11T19:48:45.326Z,1.72
2023-03-11T19:51:14.428Z,1.67
2023-03-11T19:53:41.594Z,1.86
2023-03-11T19:56:09.144Z,1.70
2023-03-11T19:58:36.047Z,1.70
2023-03-11T20:01:02.616Z,1.79
2023-03-11T20:03:29.772Z,2.14
2023-03-11T20:05:57.921Z,1.65
2023-03-11T20:08:25.672Z,1.71
2023-03-11T20:10:53.471Z,1.43
2023-03-11T20:13:21.550Z,1.53
2023-03-11T20:15:48.127Z,1.35
2023-03-11T20:18:14.559Z,1.46
2023-03-11T20:20:43.254Z,1.42
2023-03-11T20:23:10.382Z,1.43
2023-03-11T20:25:41.326Z,1.61
2023-03-11T20:28:08.081Z,1.45
2023-03-11T20:30:36.751Z,1.26
2023-03-11T20:33:03.203Z,1.31
2023-03-11T20:35:29.673Z,1.06
2023-03-11T20:37:56.144Z,0.97
2023-03-11T20:40:22.627Z,1.06
2023-03-11T20:42:49.095Z,0.95
2023-03-11T20:45:21.504Z,0.92
2023-03-11T20:47:49.192Z,1.07
2023-03-11T20:50:16.306Z,1.11
2023-03-11T20:52:42.806Z,0.99
2023-03-11T20:55:10.250Z,1.04
2023-03-11T20:57:38.077Z,1.04
2023-03-11T21:00:11.410Z,0.98
2023-03-11T21:02:40.184Z,0.82
2023-03-11T21:05:08.378Z,0.95
2023-03-11T21:07:35.329Z,0.87
2023-03-11T21:10:03.779Z,0.72
2023-03-11T21:12:31.415Z,0.61
2023-03-11T21:14:58.052Z,0.68
2023-03-11T21:17:24.793Z,0.62
2023-03-11T21:19:54.167Z,0.59
2023-03-11T21:22:20.764Z,0.66
2023-03-11T21:24:54.436Z,0.62
2023-03-11T21:27:27.744Z,0.67
2023-03-11T21:29:58.368Z,0.34
2023-03-11T21:32:27.223Z,0.23
2023-03-11T21:34:59.022Z,0.12
2023-03-11T21:37:26.743Z,0.33
2023-03-11T21:39:53.735Z,0.29
2023-03-11T21:42:20.873Z,0.10
2023-03-11T21:44:47.433Z,-0.02
2023-03-11T21:47:14.001Z,0.02
2023-03-11T21:49:40.485Z,0.11
2023-03-11T21:52:07.028Z,0.24
2023-03-11T21:54:33.470Z,0.06
2023-03-11T21:56:59.987Z,0.08
2023-03-11T21:59:26.676Z,0.01
2023-03-11T22:01:53.383Z,0.08
2023-03-11T22:04:20.103Z,-0.01
2023-03-11T22:06:46.573Z,-0.07
2023-03-11T22:09:13.131Z,0.12
2023-03-11T22:11:39.672Z,0.01
2023-03-11T22:14:06.200Z,-0.02
2023-03-11T22:16:32.888Z,-0.12
2023-03-11T22:18:59.341Z,-0.25
2023-03-11T22:21:25.818Z,-0.14
2023-03-11T22:23:52.334Z,0.10
2023-03-11T22:26:18.755Z,0.11
2023-03-11T22:28:45.176Z,-0.10
2023-03-11T22:31:13.901Z,-0.27
2023-03-11T22:33:40.500Z,-0.30
2023-03-11T22:36:09.154Z,-0.12
2023-03-11T22:38:36.847Z,-0.38
2023-03-11T22:41:07.661Z,-0.24
2023-03-11T22:43:34.968Z,-0.24
2023-03-11T22:46:02.645Z,-0.48
2023-03-11T22:48:29.179Z,-0.45
2023-03-11T22:50:58.779Z,-0.38
2023-03-11T22:53:25.200Z,-0.42
2023-03-11T22:55:52.766Z,-0.34
2023-03-11T22:58:19.679Z,-0.27
2023-03-11T23:00:46.649Z,-0.23
2023-03-11T23:03:13.540Z,-0.26
2023-03-11T23:05:43.431Z,-0.38
2023-03-11T23:08:12.076Z,-0.32
2023-03-11T23:10:45.698Z,-0.49
2023-03-11T23:13:12.882Z,-0.45
2023-03-11T23:15:44.285Z,-0.43
2023-03-11T23:18:11.684Z,-0.56
2023-03-11T23:20:39.987Z,-0.66
2023-03-11T23:23:07.295Z,-0.72
2023-03-11T23:25:34.864Z,-0.63
2023-03-11T23:28:02.933Z,-0.66
2023-03-11T23:30:29.463Z,-0.85
2023-03-11T23:32:57.179Z,-0.90
2023-03-11T23:35:23.706Z,-0.79
2023-03-11T23:37:50.923Z,-0.73
2023-03-11T23:40:17.547Z,-0.73
2023-03-11T23:42:43.982Z,-0.81
2023-03-11T23:45:10.917Z,-0.75
2023-03-11T23:47:37.346Z,-0.78
2023-03-11T23:50:04.049Z,-0.58
2023-03-11T23:52:30.445Z,-0.54
2023-03-11T23:54:56.944Z,-0.46
2023-03-11T23:57:23.402Z,-0.43
2023-03-11T23:59:49.871Z,-0.61
